NCAR-RAP Real-Time Weather Data

Output produced by METARs form (06 May 2021  15:00 UTC)
found at http://weather.rap.ucar.edu/surface/
 
KMMV 061453Z AUTO 20007KT 10SM CLR 12/07 A2994 RMK AO2 SLP137 T01220072 53018
KMMV 061353Z AUTO 18003KT 10SM CLR 12/06 A2991 RMK AO2 SLP128 T01170061
KMMV 061253Z AUTO 20007KT 10SM CLR 10/06 A2990 RMK AO2 SLP122 T01000056
KMMV 061153Z AUTO 19007KT 10SM BKN120 10/06 A2989 RMK AO2 SLP119 T01000056 10156 20100 53010
KMMV 061053Z AUTO 21009KT 10SM BKN120 12/05 A2987 RMK AO2 SLP113 T01170050
KMMV 060953Z AUTO 20006KT 10SM FEW120 13/06 A2986 RMK AO2 SLP111 T01280056
KMMV 060853Z AUTO 16006KT 10SM SCT120 13/07 A2985 RMK AO2 SLP108 T01330067 53005
KMMV 060753Z AUTO 18003KT 10SM CLR 14/07 A2985 RMK AO2 SLP106 T01440067 402670044
KMMV 060653Z AUTO VRB03KT 10SM CLR 15/07 A2984 RMK AO2 SLP103 T01500072
KMMV 060553Z AUTO 24005KT 10SM CLR 16/07 A2984 RMK AO2 SLP103 T01560072 10267 20156 51014
KMMV 060453Z AUTO 23006KT 10SM CLR 17/08 A2983 RMK AO2 SLP100 T01670083
KMMV 060353Z AUTO 22009KT 10SM CLR 18/08 A2982 RMK AO2 SLP096 T01830083
KMMV 060253Z AUTO 23007KT 10SM CLR 20/13 A2980 RMK AO2 SLP090 T02000128 56010